Fremont Valley, California
Current Conditions -  °F | °C
As of 9:35 AM on Saturday 25 Oct 2014 (Local Time) from KMHV Reporting Station
Clear Clear  
Wind Chill: 72°   Ceiling: Unl
Heat Index: 72°   Visibility: 10mi
Dew Point: 32°   Wind: 18mph
Humidity: 23%   Direction: 190°S
Pressure: 30.09"   Gusts: 22mph
Location:  35.0508°N, 118.171°W
Report Text: KMHV 251635Z AUTO 19016G19KT 10SM CLR 22/00 A3009 RMK AO1
Loading
Personal Weather Stations






























Interactive Weather Map
Tropical Storm Tracking
New forecast layout! Learn more

10-Day Weather Forecast

Advertisements
Track Severe Weather on mobile